M I D A S
Marine Information and Data Acquisition System
Tripno 2243 of the Zeeleeuw from 2011-11-10 07:49:08 to 2011-11-10 16:26:49
Back to CruiseResearch ActivitiesStationsMapUnderway DataData graphs

EquipmentUnitsComments
TimeDGPSUTC
LatitudeDGPSDM.mWGS84
LongitudeDGPSDM.mWGS84
SpeedMeteo Stationm/sRelative wind speed
DirectionMeteo StationdegRelative wind direction
TemperatureMeteo Stationdeg CelciusAir temperature
PressureMeteo StationPaAtmospheric pressure
HumidityMeteo Station%Relative humidity
Missing or incorrect values are displayed as -999
Metereological data collected by the RV Zeeleeuw from 2011-11-10 07:20:09 to 2011-11-10 16:36:01
Time Latitude Longitude Speed Direction Temperature Pressure Humidity
2011-11-10 07:21 51°13.637 2°56.019 -999 342 8.5 101950 48
2011-11-10 07:22 51°13.637 2°56.019 -999 346 8.5 101950 46
2011-11-10 07:23 51°13.634 2°56.018 -999 343 8.5 101950 48
2011-11-10 07:24 51°13.635 2°56.018 -999 332 8.5 101950 48
2011-11-10 07:25 51°13.636 2°56.018 -999 339 8.5 101960 48
2011-11-10 07:26 51°13.637 2°56.018 -999 330 8.5 101950 48
2011-11-10 07:27 51°13.637 2°56.018 -999 345 8.5 101960 48
2011-11-10 07:28 51°13.637 2°56.018 -999 344 8.6 101950 48
2011-11-10 07:29 51°13.636 2°56.018 -999 336 8.6 101950 48
2011-11-10 07:30 51°13.638 2°56.019 -999 343 -999 -999 -999
2011-11-10 07:31 51°13.639 2°56.019 -999 338 8.5 101960 48
2011-11-10 07:32 51°13.635 2°56.019 -999 333 8.5 101960 48
2011-11-10 07:33 51°13.636 2°56.019 -999 339 8.5 101960 48
2011-11-10 07:34 51°13.636 2°56.018 -999 344 8.5 101960 48
2011-11-10 07:35 51°13.636 2°56.018 -999 334 8.6 101970 48
2011-11-10 07:36 51°13.635 2°56.018 -999 332 8.6 101970 48
2011-11-10 07:37 51°13.635 2°56.018 -999 333 8.6 101970 48
2011-11-10 07:38 51°13.635 2°56.019 -999 337 8.7 101960 48
2011-11-10 07:39 51°13.636 2°56.019 -999 338 8.6 101960 48
2011-11-10 07:40 51°13.635 2°56.019 -999 339 8.6 101970 48
2011-11-10 07:41 51°13.635 2°56.019 -999 343 8.5 101970 48
2011-11-10 07:42 51°13.634 2°56.019 -999 343 8.6 101970 48
2011-11-10 07:43 51°13.634 2°56.02 -999 338 8.6 101970 48
2011-11-10 07:44 51°13.633 2°56.019 -999 344 8.6 101970 48
2011-11-10 07:45 51°13.632 2°56.019 -999 330 8.6 101970 48
2011-11-10 07:46 51°13.635 2°56.019 -999 333 8.6 101980 48
2011-11-10 07:47 51°13.633 2°56.019 -999 336 8.6 101980 48
2011-11-10 07:48 51°13.633 2°56.019 -999 349 8.7 101980 48
2011-11-10 07:49 51°13.635 2°56.008 -999 359 8.7 101980 48
2011-11-10 07:50 51°13.652 2°55.919 0.7 2 8.7 101980 47
2011-11-10 07:51 51°13.69 2°55.812 -999 343 8.7 101980 48
2011-11-10 07:52 51°13.749 2°55.712 -999 318 8.8 101980 48
2011-11-10 07:53 51°13.825 2°55.649 0.1 252 8.9 101980 48
2011-11-10 07:54 51°13.903 2°55.626 0.1 253 8.9 101980 48
2011-11-10 07:55 51°13.952 2°55.646 1.3 264 8.9 101980 47
2011-11-10 07:56 51°13.971 2°55.661 0.1 267 9 101980 48
2011-11-10 07:57 51°14.008 2°55.569 -999 264 9 101980 48
2011-11-10 07:58 51°14.115 2°55.448 -999 334 9.1 101980 48
2011-11-10 07:59 51°14.248 2°55.317 -999 338 9.1 101980 48
2011-11-10 08:00 51°14.382 2°55.19 -999 6 9.1 101980 48
2011-11-10 08:01 51°14.514 2°55.038 -999 345 9.1 101980 48
2011-11-10 08:02 51°14.629 2°54.817 -999 334 9.2 101980 48
2011-11-10 08:03 51°14.605 2°54.523 5 22 9.2 101990 47
2011-11-10 08:04 51°14.494 2°54.227 6.2 25 9.2 101980 48
2011-11-10 08:05 51°14.359 2°53.947 5.6 25 9.3 101980 48
2011-11-10 08:06 51°14.215 2°53.671 6.9 21 9.4 101970 47
2011-11-10 08:07 51°14.073 2°53.41 7.5 19 9.5 101960 47
2011-11-10 08:08 51°13.938 2°53.131 7.6 26 9.5 101960 48
2011-11-10 08:09 51°13.796 2°52.86 7.1 26 9.5 101960 46
2011-11-10 08:10 51°13.67 2°52.568 7.2 20 9.6 101960 46
2011-11-10 08:11 51°13.569 2°52.249 6.1 23 9.6 101960 46
2011-11-10 08:12 51°13.473 2°51.929 7.1 20 9.6 101960 46
2011-11-10 08:13 51°13.368 2°51.614 6.6 19 9.7 101960 47
2011-11-10 08:14 51°13.263 2°51.298 7.3 24 9.7 101960 47
2011-11-10 08:15 51°13.149 2°50.99 7.1 19 9.6 101960 46
2011-11-10 08:16 51°13.041 2°50.679 6.9 24 9.5 101960 46
2011-11-10 08:17 51°12.94 2°50.36 6.8 24 9.4 101960 47
2011-11-10 08:18 51°12.836 2°50.043 7.1 23 9.4 101960 45
2011-11-10 08:19 51°12.727 2°49.73 6.2 28 9.3 101960 47
2011-11-10 08:20 51°12.612 2°49.415 6.8 22 9.3 101960 48
2011-11-10 08:21 51°12.515 2°49.1 6 25 9.2 101960 48
2011-11-10 08:22 51°12.411 2°48.784 5.5 22 9.2 101960 48
2011-11-10 08:23 51°12.298 2°48.474 7.3 21 9.3 101960 47
2011-11-10 08:24 51°12.19 2°48.162 6.3 23 9.2 101960 48
2011-11-10 08:25 51°12.096 2°47.838 5.9 26 9.3 101960 49
2011-11-10 08:26 51°12.006 2°47.51 5.4 21 9.3 101960 47
2011-11-10 08:27 51°11.905 2°47.19 6.1 24 9.3 101960 48
2011-11-10 08:28 51°11.812 2°46.864 4.9 21 9.4 101950 48
2011-11-10 08:29 51°11.72 2°46.537 5.9 21 9.4 101950 49
2011-11-10 08:30 51°11.617 2°46.217 6.8 26 9.5 101950 47
2011-11-10 08:31 51°11.523 2°45.893 5.7 23 9.5 101950 48
2011-11-10 08:32 51°11.43 2°45.57 6.8 24 9.5 101940 46
2011-11-10 08:33 51°11.329 2°45.254 4.4 22 9.5 101940 47
2011-11-10 08:34 51°11.231 2°44.936 6.8 21 9.5 101940 47
2011-11-10 08:35 51°11.153 2°44.604 5.6 24 9.5 101950 47
2011-11-10 08:36 51°11.073 2°44.273 7.3 28 9.5 101940 47
2011-11-10 08:37 51°10.987 2°43.947 6.4 24 9.6 101940 48
2011-11-10 08:38 51°10.916 2°43.612 6.1 26 9.6 101940 46
2011-11-10 08:39 51°10.84 2°43.28 6.5 22 9.6 101950 48
2011-11-10 08:40 51°10.758 2°42.954 6.4 20 9.6 101940 48
2011-11-10 08:41 51°10.672 2°42.633 5.6 27 9.6 101950 49
2011-11-10 08:42 51°10.586 2°42.312 5.4 25 9.6 101950 48
2011-11-10 08:43 51°10.505 2°41.99 6.1 25 9.7 101950 47
2011-11-10 08:44 51°10.435 2°41.662 6.5 22 9.7 101960 47
2011-11-10 08:45 51°10.359 2°41.339 5.2 21 9.7 101950 47
2011-11-10 08:46 51°10.282 2°41.016 6.2 21 9.7 101950 47
2011-11-10 08:47 51°10.212 2°40.689 6.9 26 9.8 101950 48
2011-11-10 08:48 51°10.145 2°40.362 6.8 23 9.8 101950 46
2011-11-10 08:49 51°10.081 2°40.03 6.6 27 9.9 101950 46
2011-11-10 08:50 51°9.998 2°39.712 6.5 23 10 101950 46
2011-11-10 08:51 51°9.913 2°39.395 6.8 18 10 101950 48
2011-11-10 08:52 51°9.835 2°39.074 5.3 23 10 101940 47
2011-11-10 08:53 51°9.772 2°38.739 5 28 10.1 101940 46
2011-11-10 08:54 51°9.718 2°38.41 6.8 21 10.1 101940 46
2011-11-10 08:55 51°9.642 2°38.085 6.6 21 10.1 101930 46
2011-11-10 08:56 51°9.584 2°37.751 6.3 25 10.1 101930 46
2011-11-10 08:57 51°9.506 2°37.426 7.5 25 10.1 101920 48
2011-11-10 08:58 51°9.428 2°37.102 7 24 10.1 101920 47
2011-11-10 08:59 51°9.344 2°36.783 6.7 20 10.1 101920 46
2011-11-10 09:00 51°9.276 2°36.454 6.8 23 10.1 101930 48
2011-11-10 09:01 51°9.205 2°36.126 7.1 27 10.2 101930 46
2011-11-10 09:02 51°9.116 2°35.811 6.7 26 10.2 101920 45
2011-11-10 09:03 51°9.046 2°35.484 5.6 25 10.2 101920 45
2011-11-10 09:04 51°8.974 2°35.159 7.1 21 10.1 101920 46
2011-11-10 09:05 51°8.892 2°34.84 8.1 24 10.1 101920 46
2011-11-10 09:06 51°8.817 2°34.518 6.6 19 10.2 101920 47
2011-11-10 09:07 51°8.737 2°34.202 7.9 26 10.2 101920 47
2011-11-10 09:08 51°8.653 2°33.89 7.2 19 10.2 101920 47
2011-11-10 09:09 51°8.575 2°33.576 7 20 10.2 101920 46
2011-11-10 09:10 51°8.521 2°33.252 5.9 19 10.2 101920 46
2011-11-10 09:11 51°8.543 2°32.924 2.6 253 10.2 101920 47
2011-11-10 09:12 51°8.67 2°32.667 0.1 22 10.3 101930 48
2011-11-10 09:13 51°8.855 2°32.549 6.3 9 10.3 101930 48
2011-11-10 09:14 51°9.018 2°32.721 8.3 360 10.2 101920 46
2011-11-10 09:15 51°9.164 2°32.951 7.9 358 10.1 101900 47
2011-11-10 09:16 51°9.299 2°33.197 9 358 10.1 101900 46
2011-11-10 09:17 51°9.436 2°33.442 9.9 355 10.1 101890 46
2011-11-10 09:18 51°9.577 2°33.68 8.3 2 10.1 101900 48
2011-11-10 09:19 51°9.729 2°33.902 8.1 1 10.2 101900 46
2011-11-10 09:20 51°9.882 2°34.122 7.6 359 10.2 101900 47
2011-11-10 09:21 51°10.027 2°34.356 9.8 359 10.3 101900 47
2011-11-10 09:22 51°10.172 2°34.59 10.1 355 10.4 101900 47
2011-11-10 09:23 51°10.323 2°34.812 9.2 355 10.4 101910 48
2011-11-10 09:24 51°10.473 2°35.035 7.7 354 10.4 101910 46
2011-11-10 09:25 51°10.632 2°35.241 8.2 355 10.4 101910 47
2011-11-10 09:26 51°10.79 2°35.45 8.9 354 10.4 101910 47
2011-11-10 09:27 51°10.959 2°35.641 8.5 354 10.5 101910 48
2011-11-10 09:28 51°11.116 2°35.843 8.9 352 10.5 101920 48
2011-11-10 09:29 51°11.273 2°36.062 8.7 352 10.6 101920 48
2011-11-10 09:30 51°11.429 2°36.268 8.4 355 10.6 101920 46
2011-11-10 09:31 51°11.591 2°36.47 9.3 357 10.6 101910 46
2011-11-10 09:32 51°11.756 2°36.663 7.7 353 10.7 101920 48
2011-11-10 09:33 51°11.916 2°36.87 7 355 10.8 101920 45
2011-11-10 09:34 51°12.075 2°37.077 8.7 355 10.9 101910 47
2011-11-10 09:35 51°12.24 2°37.269 9.8 357 10.9 101910 46
2011-11-10 09:36 51°12.408 2°37.466 8.3 358 11 101910 47
2011-11-10 09:37 51°12.592 2°37.582 6.2 1 11 101910 46
2011-11-10 09:38 51°12.783 2°37.688 7.7 359 11 101920 47
2011-11-10 09:39 51°12.978 2°37.748 3.9 6 11.1 101910 48
2011-11-10 09:40 51°13.179 2°37.738 6.4 5 11.1 101920 46
2011-11-10 09:41 51°13.379 2°37.733 6.5 359 11.1 101920 48
2011-11-10 09:42 51°13.566 2°37.687 3.1 12 11 101930 47
2011-11-10 09:43 51°13.684 2°37.454 0.8 351 11.1 101940 47
2011-11-10 09:44 51°13.755 2°37.161 0.1 333 11.2 101940 48
2011-11-10 09:45 51°13.814 2°36.858 -999 345 11.2 101940 47
2011-11-10 09:46 51°13.887 2°36.563 -999 320 11.2 101940 47
2011-11-10 09:47 51°13.901 2°36.254 -999 24 11.2 101940 47
2011-11-10 09:48 51°13.91 2°35.942 0.4 21 11.3 101930 47
2011-11-10 09:49 51°13.919 2°35.633 0.8 27 11.4 101940 47
2011-11-10 09:50 51°13.915 2°35.324 -999 239 11.5 101930 47
2011-11-10 09:51 51°13.92 2°35.016 0.1 23 11.6 101930 47
2011-11-10 09:52 51°13.917 2°34.704 1.7 28 11.7 101920 47
2011-11-10 09:53 51°13.91 2°34.392 3.4 21 11.8 101930 48
2011-11-10 09:54 51°13.898 2°34.08 3.6 254 11.9 101920 47
2011-11-10 09:55 51°13.901 2°33.763 3.6 252 12 101920 46
2011-11-10 09:56 51°13.898 2°33.445 3.7 252 12 101920 48
2011-11-10 09:57 51°13.899 2°33.125 2.3 253 12 101920 46
2011-11-10 09:58 51°13.89 2°32.806 2.7 262 12 101920 47
2011-11-10 09:59 51°13.99 2°32.544 2.7 28 12 101920 46
2011-11-10 10:00 51°14.183 2°32.502 8.3 1 11.9 101910 45
2011-11-10 10:01 51°14.373 2°32.646 10.9 357 11.8 101900 47
2011-11-10 10:02 51°14.548 2°32.84 10.7 355 11.6 101890 47
2011-11-10 10:03 51°14.721 2°33.042 11.6 354 11.5 101890 47
2011-11-10 10:04 51°14.899 2°33.231 8.5 357 11.5 101900 47
2011-11-10 10:05 51°15.083 2°33.421 9.9 353 11.4 101890 47
2011-11-10 10:06 51°15.256 2°33.62 11.8 353 11.4 101900 48
2011-11-10 10:07 51°15.432 2°33.823 10.2 355 11.3 101900 47
2011-11-10 10:08 51°15.612 2°34.018 9.8 357 11.4 101900 47
2011-11-10 10:09 51°15.781 2°34.234 8.4 353 11.5 101900 48
2011-11-10 10:10 51°15.921 2°34.503 9.5 352 11.4 101890 46
2011-11-10 10:11 51°16.056 2°34.778 10.7 352 11.5 101890 46
2011-11-10 10:12 51°16.193 2°35.049 13.3 353 11.6 101890 47
2011-11-10 10:13 51°16.335 2°35.278 8.2 5 11.6 101900 46
2011-11-10 10:14 51°16.495 2°35.247 1.2 23 11.7 101920 45
2011-11-10 10:15 51°16.506 2°35.031 6 254 11.8 101930 47
2011-11-10 10:16 51°16.403 2°34.842 8.4 19 12 101920 46
2011-11-10 10:17 51°16.242 2°34.699 10.6 26 12 101910 47
2011-11-10 10:18 51°16.072 2°34.551 8.9 26 12.1 101910 45
2011-11-10 10:19 51°15.895 2°34.422 11.2 22 12.2 101910 47
2011-11-10 10:20 51°15.774 2°34.433 7.9 326 12.2 101910 46
2011-11-10 10:21 51°15.773 2°34.563 6.5 5 12.1 101920 47
2011-11-10 10:22 51°15.888 2°34.619 6.8 6 12 101930 47
2011-11-10 10:23 51°16.087 2°34.735 8.1 357 11.9 101920 44
2011-11-10 10:24 51°16.277 2°34.917 7.9 358 11.9 101920 47
2011-11-10 10:25 51°16.469 2°35.093 8.5 359 11.9 101920 47
2011-11-10 10:26 51°16.661 2°35.265 8.1 360 11.9 101920 47
2011-11-10 10:27 51°16.86 2°35.416 7.6 359 12 101930 48
2011-11-10 10:28 51°17.052 2°35.586 7 356 12 101930 46
2011-11-10 10:29 51°17.244 2°35.756 7.7 354 12 101930 48
2011-11-10 10:30 51°17.438 2°35.906 7 359 11.9 101930 47
2011-11-10 10:31 51°17.633 2°35.866 3.4 6 12 101940 47
2011-11-10 10:32 51°17.779 2°35.676 0.6 358 12 101950 48
2011-11-10 10:33 51°17.886 2°35.43 1.2 20 12 101940 47
2011-11-10 10:34 51°17.861 2°35.142 4.8 20 12.1 101930 47
2011-11-10 10:35 51°17.804 2°34.856 4.6 24 12.2 101930 47
2011-11-10 10:36 51°17.727 2°34.59 4.9 22 12.3 101930 48
2011-11-10 10:37 51°17.648 2°34.322 5.1 244 12.4 101930 47
2011-11-10 10:38 51°17.571 2°34.048 7.1 26 12.5 101930 47
2011-11-10 10:39 51°17.485 2°33.785 5.2 21 12.5 101920 46
2011-11-10 10:40 51°17.403 2°33.522 5 22 12.5 101920 45
2011-11-10 10:41 51°17.337 2°33.245 6.4 21 12.6 101930 45
2011-11-10 10:42 51°17.264 2°32.982 5.2 23 12.7 101930 47
2011-11-10 10:43 51°17.18 2°32.722 6 26 12.7 101930 45
2011-11-10 10:44 51°17.106 2°32.456 6.8 242 12.7 101920 46
2011-11-10 10:45 51°17.039 2°32.182 7 26 12.7 101920 46
2011-11-10 10:46 51°16.957 2°31.916 7 26 12.7 101910 46
2011-11-10 10:47 51°16.886 2°31.642 6 25 12.7 101910 45
2011-11-10 10:48 51°16.808 2°31.372 6.5 28 12.7 101920 46
2011-11-10 10:49 51°16.722 2°31.106 6.9 20 12.7 101910 45
2011-11-10 10:50 51°16.651 2°30.823 7.3 28 12.7 101910 46
2011-11-10 10:51 51°16.57 2°30.557 6.4 27 12.7 101910 47
2011-11-10 10:52 51°16.483 2°30.293 4.9 24 12.7 101910 45
2011-11-10 10:53 51°16.403 2°30.022 6.1 25 12.8 101910 46
2011-11-10 10:54 51°16.34 2°29.74 6.9 27 12.8 101910 48
2011-11-10 10:55 51°16.267 2°29.466 7.3 24 12.8 101900 46
2011-11-10 10:56 51°16.197 2°29.192 6.9 24 12.7 101910 45
2011-11-10 10:57 51°16.125 2°28.922 6.4 25 12.8 101910 47
2011-11-10 10:58 51°16.056 2°28.652 6 27 12.8 101900 47
2011-11-10 10:59 51°15.988 2°28.387 5.7 28 12.9 101900 47
2011-11-10 11:00 51°15.926 2°28.115 6.4 22 12.8 101900 44
2011-11-10 11:01 51°15.852 2°27.85 5.9 21 12.9 101900 46
2011-11-10 11:02 51°15.789 2°27.576 6.9 27 12.9 101900 44
2011-11-10 11:03 51°15.713 2°27.309 5.8 25 12.9 101890 46
2011-11-10 11:04 51°15.634 2°27.041 4.9 29 12.9 101890 45
2011-11-10 11:05 51°15.578 2°26.762 5.5 27 12.9 101890 45
2011-11-10 11:06 51°15.564 2°26.478 2.9 21 12.9 101890 44
2011-11-10 11:07 51°15.59 2°26.194 2.2 21 12.9 101890 45
2011-11-10 11:08 51°15.606 2°25.913 2.3 25 13 101880 45
2011-11-10 11:09 51°15.618 2°25.632 2.6 22 13.1 101890 45
2011-11-10 11:10 51°15.639 2°25.352 1.9 245 13.1 101880 46
2011-11-10 11:11 51°15.672 2°25.074 -999 247 13.1 101880 45
2011-11-10 11:12 51°15.816 2°24.881 4.3 8 13.1 101880 46
2011-11-10 11:13 51°16.029 2°24.898 7.7 -999 13 101860 44
2011-11-10 11:14 51°16.226 2°25.091 9 355 12.8 101860 46
2011-11-10 11:15 51°16.415 2°25.291 7.6 357 12.7 101850 46
2011-11-10 11:16 51°16.613 2°25.48 9 356 12.6 101850 47
2011-11-10 11:17 51°16.808 2°25.679 10.2 354 12.6 101850 47
2011-11-10 11:18 51°17.002 2°25.886 8.6 356 12.5 101840 46
2011-11-10 11:19 51°17.199 2°26.088 7.9 356 12.6 101850 47
2011-11-10 11:20 51°17.397 2°26.288 8.6 353 12.6 101840 46
2011-11-10 11:21 51°17.601 2°26.482 7.3 353 12.6 101840 48
2011-11-10 11:22 51°17.791 2°26.69 7.8 350 12.6 101840 46
2011-11-10 11:23 51°17.984 2°26.903 8.8 351 12.7 101840 48
2011-11-10 11:24 51°18.184 2°27.099 10.2 350 12.6 101840 47
2011-11-10 11:25 51°18.384 2°27.291 10.2 349 12.6 101850 47
2011-11-10 11:26 51°18.578 2°27.5 8.8 350 12.6 101850 47
2011-11-10 11:27 51°18.772 2°27.706 9.1 349 12.5 101850 48
2011-11-10 11:28 51°18.973 2°27.891 9.8 354 12.6 101850 47
2011-11-10 11:29 51°19.175 2°28.073 10.3 355 12.6 101850 47
2011-11-10 11:30 51°19.369 2°28.278 8.8 353 12.6 101840 48
2011-11-10 11:31 51°19.565 2°28.482 7.6 353 12.7 101850 47
2011-11-10 11:32 51°19.762 2°28.682 8.2 353 12.7 101860 46
2011-11-10 11:33 51°19.965 2°28.863 8.5 354 12.7 101840 48
2011-11-10 11:34 51°20.164 2°29.056 8.8 349 12.7 101860 48
2011-11-10 11:35 51°20.353 2°29.276 9.5 346 12.8 101850 47
2011-11-10 11:36 51°20.534 2°29.514 8.1 350 12.8 101850 49
2011-11-10 11:37 51°20.73 2°29.709 7.5 354 12.7 101860 48
2011-11-10 11:38 51°20.948 2°29.825 7.3 354 12.7 101870 48
2011-11-10 11:39 51°21.167 2°29.831 4.5 3 12.7 101870 49
2011-11-10 11:40 51°21.372 2°29.732 4 359 12.8 101880 47
2011-11-10 11:41 51°21.559 2°29.573 3.7 358 12.8 101880 47
2011-11-10 11:42 51°21.752 2°29.432 3.5 -999 12.8 101880 48
2011-11-10 11:43 51°21.938 2°29.279 1.8 355 12.8 101880 47
2011-11-10 11:44 51°22.129 2°29.139 3.8 351 12.7 101880 49
2011-11-10 11:45 51°22.323 2°29.005 4.4 348 12.8 101880 49
2011-11-10 11:46 51°22.487 2°28.808 3.3 344 12.8 101880 48
2011-11-10 11:47 51°22.62 2°28.577 2.6 350 12.7 101880 49
2011-11-10 11:48 51°22.738 2°28.327 0.8 347 12.7 101880 49
2011-11-10 11:49 51°22.855 2°28.075 0.1 346 12.7 101880 48
2011-11-10 11:50 51°22.9 2°27.791 0.5 28 12.7 101870 49
2011-11-10 11:51 51°22.902 2°27.499 1.7 26 12.8 101870 50
2011-11-10 11:52 51°22.914 2°27.205 0.1 24 12.9 101870 50
2011-11-10 11:53 51°22.928 2°26.911 3 28 13 101870 48
2011-11-10 11:54 51°22.967 2°26.625 -999 326 13 101870 49
2011-11-10 11:55 51°23.055 2°26.355 -999 351 13.1 101870 49
2011-11-10 11:56 51°23.194 2°26.137 1.5 358 13.1 101870 48
2011-11-10 11:57 51°23.387 2°26.023 5.6 357 13.1 101860 48
2011-11-10 11:58 51°23.603 2°26.096 8.3 350 12.9 101850 49
2011-11-10 11:59 51°23.795 2°26.306 7.7 349 12.9 101840 49
2011-11-10 12:00 51°23.981 2°26.533 8.8 348 12.8 101830 48
2011-11-10 12:01 51°24.175 2°26.739 10.2 349 12.8 101840 48
2011-11-10 12:02 51°24.37 2°26.943 8.6 348 12.8 101840 49
2011-11-10 12:03 51°24.56 2°27.159 9.2 348 12.8 101840 48
2011-11-10 12:04 51°24.75 2°27.374 9.3 347 12.8 101840 48
2011-11-10 12:05 51°24.946 2°27.576 8.8 349 12.7 101840 48
2011-11-10 12:06 51°25.141 2°27.779 7.6 351 12.8 101850 48
2011-11-10 12:07 51°25.336 2°27.986 8.4 351 12.9 101850 49
2011-11-10 12:08 51°25.535 2°28.177 8.4 351 12.9 101840 47
2011-11-10 12:09 51°25.728 2°28.387 8.3 351 12.9 101850 47
2011-11-10 12:10 51°25.921 2°28.596 8.4 352 13 101840 49
2011-11-10 12:11 51°26.121 2°28.787 7.5 350 13 101840 49
2011-11-10 12:12 51°26.321 2°28.986 9.4 351 13 101830 50
2011-11-10 12:13 51°26.511 2°29.206 9 351 13 101840 48
2011-11-10 12:14 51°26.705 2°29.419 9.1 351 13 101830 49
2011-11-10 12:15 51°26.897 2°29.639 8.2 351 13 101840 48
2011-11-10 12:16 51°27.095 2°29.843 7.7 351 13 101830 49
2011-11-10 12:17 51°27.286 2°30.066 7.6 350 13.1 101840 48
2011-11-10 12:18 51°27.485 2°30.272 9.7 348 13.1 101840 49
2011-11-10 12:19 51°27.683 2°30.477 8.9 348 13.2 101830 50
2011-11-10 12:20 51°27.875 2°30.702 8.5 348 13.2 101830 50
2011-11-10 12:21 51°28.067 2°30.922 7.9 347 13.2 101830 50
2011-11-10 12:22 51°28.262 2°31.133 8.2 346 13.2 101830 50
2011-11-10 12:23 51°28.452 2°31.354 7.7 348 13.2 101830 49
2011-11-10 12:24 51°28.646 2°31.565 7.5 349 13.2 101830 49
2011-11-10 12:25 51°28.844 2°31.767 9.2 348 13.3 101830 48
2011-11-10 12:26 51°29.034 2°31.992 8.8 348 13.3 101830 48
2011-11-10 12:27 51°29.223 2°32.217 7 348 13.3 101830 48
2011-11-10 12:28 51°29.418 2°32.421 8.2 348 13.3 101830 50
2011-11-10 12:29 51°29.612 2°32.635 8.5 346 13.3 101820 49
2011-11-10 12:30 51°29.798 2°32.864 8.9 347 13.4 101820 50
2011-11-10 12:31 51°29.987 2°33.08 8.1 350 13.4 101820 50
2011-11-10 12:32 51°30.2 2°33.192 7.6 353 13.5 101830 50
2011-11-10 12:33 51°30.421 2°33.284 7.1 355 13.5 101830 49
2011-11-10 12:34 51°30.638 2°33.407 7.7 354 13.5 101820 50
2011-11-10 12:35 51°30.856 2°33.518 8.1 351 13.6 101820 50
2011-11-10 12:36 51°31.074 2°33.627 8.8 352 13.6 101820 49
2011-11-10 12:37 51°31.292 2°33.75 9 355 13.6 101820 49
2011-11-10 12:38 51°31.512 2°33.861 7.5 352 13.7 101830 50
2011-11-10 12:39 51°31.731 2°33.974 8.3 354 13.7 101830 48
2011-11-10 12:40 51°31.951 2°34.084 8.6 353 13.8 101820 49
2011-11-10 12:41 51°32.171 2°34.203 7.9 354 13.8 101820 50
2011-11-10 12:42 51°32.39 2°34.328 9.3 354 13.8 101820 48
2011-11-10 12:43 51°32.61 2°34.441 9 353 13.9 101820 50
2011-11-10 12:44 51°32.833 2°34.556 8.9 354 14 101820 50
2011-11-10 12:45 51°33.054 2°34.675 9 357 14 101820 50
2011-11-10 12:46 51°33.279 2°34.779 8.7 353 14 101820 50
2011-11-10 12:47 51°33.501 2°34.837 5.2 4 14.1 101820 48
2011-11-10 12:48 51°33.717 2°34.768 4.6 4 14 101830 49
2011-11-10 12:49 51°33.921 2°34.64 4.4 5 14 101840 50
2011-11-10 12:50 51°34.131 2°34.528 4.8 2 14.1 101840 50
2011-11-10 12:51 51°34.343 2°34.425 6.8 359 14 101830 48
2011-11-10 12:52 51°34.567 2°34.438 7.5 357 14 101820 49
2011-11-10 12:53 51°34.791 2°34.509 7.9 357 13.9 101820 47
2011-11-10 12:54 51°35.016 2°34.586 8.3 356 13.9 101820 48
2011-11-10 12:55 51°35.237 2°34.68 7.7 357 14 101820 47
2011-11-10 12:56 51°35.46 2°34.766 7.8 357 14 101820 48
2011-11-10 12:57 51°35.685 2°34.839 7.4 353 14 101820 48
2011-11-10 12:58 51°35.908 2°34.923 8.4 354 14 101820 49
2011-11-10 12:59 51°36.129 2°35.012 8.7 355 14 101820 49
2011-11-10 13:00 51°36.351 2°35.091 7.7 358 14 101820 50
2011-11-10 13:01 51°36.574 2°35.16 8.1 356 14 101820 49
2011-11-10 13:02 51°36.796 2°35.245 8.1 356 14 101820 50
2011-11-10 13:03 51°37.018 2°35.32 7.5 358 13.9 101820 48
2011-11-10 13:04 51°37.24 2°35.391 6.8 355 13.9 101820 49
2011-11-10 13:05 51°37.461 2°35.476 7.4 357 13.9 101820 49
2011-11-10 13:06 51°37.683 2°35.55 8.8 353 14 101820 49
2011-11-10 13:07 51°37.904 2°35.62 7.6 357 14 101820 47
2011-11-10 13:08 51°38.123 2°35.639 5.5 4 14 101820 48
2011-11-10 13:09 51°38.273 2°35.439 1 17 13.9 101840 49
2011-11-10 13:10 51°38.331 2°35.148 1.2 22 13.9 101840 48
2011-11-10 13:11 51°38.295 2°34.867 2.1 21 14.1 101850 50
2011-11-10 13:12 51°38.237 2°34.595 2.3 22 14.2 101840 49
2011-11-10 13:13 51°38.175 2°34.323 2.3 21 14.3 101840 48
2011-11-10 13:14 51°38.078 2°34.084 4.6 23 14.4 101840 47
2011-11-10 13:15 51°37.98 2°33.844 3.6 24 14.4 101830 47
2011-11-10 13:16 51°37.873 2°33.617 4.8 28 14.3 101830 47
2011-11-10 13:17 51°37.757 2°33.4 5.2 28 14.4 101830 48
2011-11-10 13:18 51°37.637 2°33.19 4.8 22 14.3 101840 48
2011-11-10 13:19 51°37.519 2°32.978 5.1 24 14.4 101830 47
2011-11-10 13:20 51°37.411 2°32.75 4.8 20 14.4 101820 47
2011-11-10 13:21 51°37.296 2°32.533 5.3 25 14.4 101820 48
2011-11-10 13:22 51°37.177 2°32.32 4.9 22 14.4 101820 47
2011-11-10 13:23 51°37.067 2°32.096 4 23 14.4 101830 48
2011-11-10 13:24 51°36.948 2°31.882 5.8 22 14.4 101820 47
2011-11-10 13:25 51°36.826 2°31.668 5.4 25 14.4 101820 48
2011-11-10 13:26 51°36.704 2°31.453 5.3 27 14.4 101810 47
2011-11-10 13:27 51°36.588 2°31.229 4.3 22 14.4 101810 48
2011-11-10 13:28 51°36.47 2°31.009 5.3 25 14.5 101810 47
2011-11-10 13:29 51°36.348 2°30.793 4.7 22 14.4 101810 47
2011-11-10 13:30 51°36.231 2°30.571 5.9 23 14.4 101800 47
2011-11-10 13:31 51°36.105 2°30.367 5.4 249 14.5 101810 47
2011-11-10 13:32 51°35.983 2°30.154 4.8 247 14.5 101800 47
2011-11-10 13:33 51°35.866 2°29.933 5.2 27 14.5 101800 49
2011-11-10 13:34 51°35.75 2°29.708 5.2 244 14.5 101810 47
2011-11-10 13:35 51°35.624 2°29.499 5.2 21 14.4 101800 49
2011-11-10 13:36 51°35.484 2°29.311 5.5 22 14.4 101800 49
2011-11-10 13:37 51°35.352 2°29.107 6.6 26 14.5 101800 48
2011-11-10 13:38 51°35.215 2°28.917 6.9 25 14.5 101800 48
2011-11-10 13:39 51°35.084 2°28.714 5 26 14.5 101800 48
2011-11-10 13:40 51°34.951 2°28.514 5.4 28 14.5 101810 48
2011-11-10 13:41 51°34.818 2°28.316 5.5 25 14.5 101810 48
2011-11-10 13:42 51°34.686 2°28.116 5.5 27 14.5 101810 48
2011-11-10 13:43 51°34.548 2°27.924 6.7 26 14.5 101810 48
2011-11-10 13:44 51°34.417 2°27.716 5.2 24 14.5 101810 47
2011-11-10 13:45 51°34.278 2°27.525 6.1 25 14.5 101810 47
2011-11-10 13:46 51°34.143 2°27.325 5.6 28 14.6 101810 46
2011-11-10 13:47 51°34.013 2°27.119 5.1 241 14.6 101810 48
2011-11-10 13:48 51°33.882 2°26.914 6.5 236 14.6 101810 49
2011-11-10 13:49 51°33.745 2°26.721 5.3 238 14.6 101810 48
2011-11-10 13:50 51°33.611 2°26.516 5.8 241 14.6 101810 48
2011-11-10 13:51 51°33.476 2°26.321 5 32 14.6 101810 47
2011-11-10 13:52 51°33.344 2°26.122 4.9 239 14.6 101820 47
2011-11-10 13:53 51°33.212 2°25.92 4.7 24 14.6 101810 49
2011-11-10 13:54 51°33.086 2°25.705 4.8 239 14.6 101810 46
2011-11-10 13:55 51°32.955 2°25.5 5.8 241 14.5 101810 47
2011-11-10 13:56 51°32.819 2°25.298 5.3 22 14.6 101810 48
2011-11-10 13:57 51°32.687 2°25.091 4.3 242 14.5 101810 49
2011-11-10 13:58 51°32.551 2°24.894 5.3 22 14.6 101800 48
2011-11-10 13:59 51°32.415 2°24.694 4.8 237 14.6 101800 49
2011-11-10 14:00 51°32.281 2°24.488 5.3 34 14.6 101800 49
2011-11-10 14:01 51°32.153 2°24.273 5 33 14.6 101800 48
2011-11-10 14:02 51°32.017 2°24.074 5.3 241 14.5 101800 48
2011-11-10 14:03 51°31.886 2°23.862 6 238 14.5 101800 49
2011-11-10 14:04 51°31.747 2°23.665 4.4 27 14.4 101810 48
2011-11-10 14:05 51°31.586 2°23.532 6.3 35 14.4 101800 48
2011-11-10 14:06 51°31.405 2°23.46 7.7 234 14.3 101800 50
2011-11-10 14:07 51°31.228 2°23.373 7.7 32 14.3 101800 50
2011-11-10 14:08 51°31.043 2°23.382 8.2 34 14.2 101790 50
2011-11-10 14:09 51°30.855 2°23.404 7.7 25 14.1 101790 48
2011-11-10 14:10 51°30.666 2°23.427 7.1 38 14.2 101790 48
2011-11-10 14:11 51°30.478 2°23.44 7.1 34 14.1 101790 50
2011-11-10 14:12 51°30.291 2°23.442 9.3 35 14.2 101790 49
2011-11-10 14:13 51°30.103 2°23.454 8.8 21 14.1 101790 51
2011-11-10 14:14 51°29.916 2°23.47 9.2 37 14.1 101790 51
2011-11-10 14:15 51°29.726 2°23.467 7.6 37 14.1 101790 50
2011-11-10 14:16 51°29.535 2°23.477 8.8 21 14.1 101790 50
2011-11-10 14:17 51°29.343 2°23.497 8.6 33 14.1 101780 50
2011-11-10 14:18 51°29.153 2°23.515 8.4 33 14.1 101790 48
2011-11-10 14:19 51°28.964 2°23.511 7.6 232 14.1 101790 50
2011-11-10 14:20 51°28.777 2°23.529 7.3 23 14.1 101790 50
2011-11-10 14:21 51°28.592 2°23.529 9.2 35 14.1 101780 49
2011-11-10 14:22 51°28.419 2°23.614 8.3 317 14.1 101780 51
2011-11-10 14:23 51°28.298 2°23.868 10.5 320 14.1 101770 51
2011-11-10 14:24 51°28.179 2°24.13 11.5 319 14.1 101780 51
2011-11-10 14:25 51°28.051 2°24.384 10.5 320 14.1 101780 50
2011-11-10 14:26 51°27.93 2°24.649 9.6 319 14.2 101780 50
2011-11-10 14:27 51°27.809 2°24.912 9.5 318 14.1 101770 50
2011-11-10 14:28 51°27.684 2°25.167 10.2 319 14.1 101770 51
2011-11-10 14:29 51°27.571 2°25.437 11.6 318 14.1 101770 50
2011-11-10 14:30 51°27.452 2°25.699 9 320 14.1 101770 51
2011-11-10 14:31 51°27.342 2°25.972 12 320 14.1 101760 51
2011-11-10 14:32 51°27.22 2°26.228 10.1 317 14.1 101770 51
2011-11-10 14:33 51°27.089 2°26.471 10.2 318 14.1 101770 50
2011-11-10 14:34 51°26.957 2°26.713 10.8 316 14.1 101760 49
2011-11-10 14:35 51°26.828 2°26.96 10 317 14.1 101760 51
2011-11-10 14:36 51°26.706 2°27.219 12.2 315 14.2 101760 51
2011-11-10 14:37 51°26.584 2°27.477 11.8 319 14.2 101750 52
2011-11-10 14:38 51°26.457 2°27.727 11.3 26 14.2 101750 51
2011-11-10 14:39 51°26.33 2°27.976 10.9 316 14.2 101750 51
2011-11-10 14:40 51°26.207 2°28.231 12.2 27 14.2 101750 51
2011-11-10 14:41 51°26.073 2°28.468 10.7 316 14.2 101750 52
2011-11-10 14:42 51°25.952 2°28.725 8.8 26 14.3 101750 51
2011-11-10 14:43 51°25.829 2°28.975 9.7 316 14.2 101760 51
2011-11-10 14:44 51°25.701 2°29.214 10.8 35 14.2 101750 50
2011-11-10 14:45 51°25.563 2°29.447 12.2 316 14.3 101750 50
2011-11-10 14:46 51°25.424 2°29.681 11.4 23 14.3 101750 51
2011-11-10 14:47 51°25.296 2°29.933 9.6 316 14.2 101750 50
2011-11-10 14:48 51°25.17 2°30.188 12.7 316 14.2 101750 51
2011-11-10 14:49 51°25.045 2°30.441 12.3 22 14.2 101750 50
2011-11-10 14:50 51°24.912 2°30.683 10.7 316 14.2 101760 50
2011-11-10 14:51 51°24.79 2°30.942 12.1 316 14.2 101750 50
2011-11-10 14:52 51°24.663 2°31.19 11.1 316 14.1 101750 52
2011-11-10 14:53 51°24.54 2°31.445 10.6 318 14.1 101760 50
2011-11-10 14:54 51°24.419 2°31.707 11.2 316 14.1 101750 50
2011-11-10 14:55 51°24.287 2°31.951 9.7 317 14.1 101760 51
2011-11-10 14:56 51°24.156 2°32.2 11 316 14.1 101760 51
2011-11-10 14:57 51°24.02 2°32.442 10.2 317 14.1 101770 51
2011-11-10 14:58 51°23.89 2°32.697 10.1 317 14.2 101770 50
2011-11-10 14:59 51°23.756 2°32.945 9.5 320 14.1 101770 51
2011-11-10 15:00 51°23.625 2°33.198 10.1 316 14.1 101760 51
2011-11-10 15:01 51°23.497 2°33.453 9.2 318 14.1 101760 51
2011-11-10 15:02 51°23.363 2°33.699 8 315 14.1 101770 52
2011-11-10 15:03 51°23.224 2°33.934 8.3 319 14.1 101770 51
2011-11-10 15:04 51°23.093 2°34.181 9.4 317 14.1 101770 52
2011-11-10 15:05 51°22.966 2°34.432 8.7 320 14 101770 51
2011-11-10 15:06 51°22.83 2°34.668 8.7 317 14 101770 53
2011-11-10 15:07 51°22.703 2°34.916 9.5 318 14 101770 52
2011-11-10 15:08 51°22.579 2°35.165 9 318 13.9 101780 52
2011-11-10 15:09 51°22.441 2°35.396 9 317 13.9 101770 53
2011-11-10 15:10 51°22.311 2°35.642 7.9 317 13.9 101770 53
2011-11-10 15:11 51°22.19 2°35.9 9.5 317 13.9 101770 53
2011-11-10 15:12 51°22.065 2°36.153 10 316 13.9 101770 52
2011-11-10 15:13 51°21.933 2°36.395 11.1 315 13.9 101770 52
2011-11-10 15:14 51°21.791 2°36.624 8.3 316 13.8 101770 53
2011-11-10 15:15 51°21.658 2°36.867 9.4 317 13.8 101770 52
2011-11-10 15:16 51°21.529 2°37.116 11.2 318 13.8 101770 53
2011-11-10 15:17 51°21.402 2°37.366 9.6 317 13.8 101780 52
2011-11-10 15:18 51°21.261 2°37.594 8.1 317 13.8 101770 53
2011-11-10 15:19 51°21.127 2°37.834 10 317 13.8 101780 52
2011-11-10 15:20 51°20.996 2°38.076 8.8 317 13.8 101780 53
2011-11-10 15:21 51°20.854 2°38.303 9.5 319 13.8 101770 52
2011-11-10 15:22 51°20.725 2°38.549 9.7 318 13.8 101780 53
2011-11-10 15:23 51°20.586 2°38.78 9.8 318 13.8 101770 52
2011-11-10 15:24 51°20.45 2°39.017 9.2 317 13.8 101780 52
2011-11-10 15:25 51°20.322 2°39.261 8.7 317 13.8 101780 53
2011-11-10 15:26 51°20.194 2°39.503 9 319 13.8 101780 52
2011-11-10 15:27 51°20.064 2°39.745 8.5 317 13.8 101780 53
2011-11-10 15:28 51°19.924 2°39.974 9.5 316 13.8 101780 53
2011-11-10 15:29 51°19.792 2°40.214 8.8 317 13.8 101780 52
2011-11-10 15:30 51°19.656 2°40.448 9.1 315 13.8 101780 53
2011-11-10 15:31 51°19.526 2°40.685 8.8 317 13.9 101780 52
2011-11-10 15:32 51°19.388 2°40.913 9.7 318 13.9 101780 53
2011-11-10 15:33 51°19.263 2°41.162 10 319 13.9 101780 51
2011-11-10 15:34 51°19.134 2°41.407 10.2 318 13.9 101780 53
2011-11-10 15:35 51°18.997 2°41.645 8.9 316 13.9 101780 51
2011-11-10 15:36 51°18.852 2°41.868 9.4 318 13.9 101780 52
2011-11-10 15:37 51°18.722 2°42.111 9 320 13.9 101780 52
2011-11-10 15:38 51°18.606 2°42.372 9.5 320 14 101780 51
2011-11-10 15:39 51°18.472 2°42.614 9.8 316 14 101780 52
2011-11-10 15:40 51°18.337 2°42.854 10 315 14 101780 51
2011-11-10 15:41 51°18.19 2°43.079 8.5 23 14 101780 52
2011-11-10 15:42 51°18.04 2°43.296 8.4 315 13.9 101780 52
2011-11-10 15:43 51°17.898 2°43.512 8.8 316 13.9 101780 50
2011-11-10 15:44 51°17.763 2°43.736 7.8 19 13.9 101780 52
2011-11-10 15:45 51°17.623 2°43.953 7.7 317 13.8 101780 52
2011-11-10 15:46 51°17.474 2°44.159 7.4 20 13.8 101780 50
2011-11-10 15:47 51°17.324 2°44.362 7.9 316 13.8 101780 53
2011-11-10 15:48 51°17.165 2°44.556 8.2 315 13.8 101780 51
2011-11-10 15:49 51°17.003 2°44.742 8.2 316 13.8 101780 51
2011-11-10 15:50 51°16.85 2°44.944 8.3 316 13.9 101780 51
2011-11-10 15:51 51°16.692 2°45.136 7.3 29 14 101780 51
2011-11-10 15:52 51°16.543 2°45.34 9.3 317 14 101780 52
2011-11-10 15:53 51°16.393 2°45.543 9.8 315 14 101780 52
2011-11-10 15:54 51°16.255 2°45.759 9.6 319 14.1 101780 50
2011-11-10 15:55 51°16.154 2°46.024 9.5 322 14.1 101780 52
2011-11-10 15:56 51°16.092 2°46.32 11.6 323 14.2 101780 50
2011-11-10 15:57 51°16.018 2°46.612 8.7 323 14.2 101780 51
2011-11-10 15:58 51°15.95 2°46.91 9.9 324 14.2 101780 50
2011-11-10 15:59 51°15.872 2°47.204 9.2 323 14.2 101780 49
2011-11-10 16:00 51°15.792 2°47.492 9 325 14.2 101770 51
2011-11-10 16:01 51°15.72 2°47.787 8.9 324 14.2 101780 51
2011-11-10 16:02 51°15.644 2°48.078 8.9 323 14.2 101780 50
2011-11-10 16:03 51°15.564 2°48.364 9.5 325 14.1 101790 50
2011-11-10 16:04 51°15.503 2°48.657 9.7 326 14 101790 50
2011-11-10 16:05 51°15.442 2°48.951 9.8 326 14.1 101780 51
2011-11-10 16:06 51°15.372 2°49.244 9.5 325 14.1 101780 51
2011-11-10 16:07 51°15.288 2°49.526 9.7 324 14.2 101780 51
2011-11-10 16:08 51°15.214 2°49.813 8.9 327 14.3 101780 50
2011-11-10 16:09 51°15.168 2°50.114 8.4 327 14.3 101790 50
2011-11-10 16:10 51°15.131 2°50.416 10.3 325 14.4 101780 48
2011-11-10 16:11 51°15.079 2°50.712 9.1 327 14.4 101780 50
2011-11-10 16:12 51°15.042 2°51.014 8.9 326 14.4 101780 48
2011-11-10 16:13 51°14.982 2°51.309 7.5 325 14.4 101780 48
2011-11-10 16:14 51°14.931 2°51.606 10 328 14.4 101780 49
2011-11-10 16:15 51°14.879 2°51.903 8.9 326 14.4 101780 49
2011-11-10 16:16 51°14.825 2°52.197 9.5 327 14.3 101790 50
2011-11-10 16:17 51°14.783 2°52.495 9.4 327 14.2 101780 49
2011-11-10 16:18 51°14.745 2°52.794 10 328 14.2 101770 48
2011-11-10 16:19 51°14.732 2°53.097 10.3 330 14.4 101780 48
2011-11-10 16:20 51°14.737 2°53.401 9.2 330 14.4 101780 47
2011-11-10 16:21 51°14.736 2°53.7 8.6 329 14.5 101780 48
2011-11-10 16:22 51°14.724 2°53.998 8.5 326 14.4 101780 48
2011-11-10 16:23 51°14.685 2°54.292 8.9 326 14.4 101780 48
2011-11-10 16:24 51°14.638 2°54.581 7.9 327 14.3 101780 48
2011-11-10 16:25 51°14.57 2°54.86 8.9 325 14.2 101780 48
2011-11-10 16:26 51°14.446 2°55.088 9.5 317 14.1 101780 48
2011-11-10 16:27 51°14.289 2°55.264 9 317 14.1 101780 48
2011-11-10 16:28 51°14.14 2°55.411 7.2 319 14.1 101790 49
2011-11-10 16:29 51°14.01 2°55.503 5.9 319 14.2 101790 49
2011-11-10 16:30 51°13.912 2°55.568 5 317 14.3 101800 49
2011-11-10 16:31 51°13.81 2°55.645 5.8 318 14.3 101800 47
2011-11-10 16:32 51°13.728 2°55.753 4.8 323 14.3 101800 48
2011-11-10 16:33 51°13.679 2°55.859 4.3 320 14.3 101800 48
2011-11-10 16:34 51°13.65 2°55.946 4 323 14.3 101800 48
2011-11-10 16:35 51°13.636 2°56.012 4.2 322 14.3 101800 49